EIN40X LIRF-EIDW
Flight info
| Callsign | EIN40X |
|---|---|
| Flight time | N/A |
| Altitude | 38000 |
| Route | NEMBO DCT GOVGO DCT AOSTA DCT ORSUD DCT MOLUS DCT IBODI DCT GOTED DCT TRO DCT CLM DCT KOPOR DCT VESAN DCT RATUK DCT SOVAT L613 SANDY L722 ICTAM T421 DIDZA DCT CESQA DCT BIBPE DCT OKTAD DCT MEDOG DCT KRAGY DCT PEMOB M17 VATRY VATRY4L |
| Aircraft | A21N/M-SDE2E3FGHIJ1RWXY/LB1 |
Departure
| Time | 2026-05-05 14:08 |
|---|---|
| Airport | Rome–Fiumicino Leonardo da Vinci International Airport (LIRF) |
Arrival
| Time | N/A |
|---|---|
| Airport | Dublin Airport (EIDW) |
| Time | Latitude | Longitude | Altitude | Speed | Heading |
|---|---|---|---|---|---|
| 2026-05-05 13:54 | 41.80253 | 12.26274 | 14 ft | 0 kts | 205° |
| 2026-05-05 14:04 | 41.80249 | 12.26271 | 14 ft | 2 kts | 207° |
| 2026-05-05 14:05 | 41.80229 | 12.26238 | 15 ft | 6 kts | 229° |
| 2026-05-05 14:05 | 41.80178 | 12.26168 | 17 ft | 11 kts | 248° |
| 2026-05-05 14:05 | 41.80229 | 12.26061 | 16 ft | 16 kts | 354° |
| 2026-05-05 14:05 | 41.80367 | 12.26126 | 17 ft | 21 kts | 25° |
| 2026-05-05 14:06 | 41.80521 | 12.26246 | 15 ft | 23 kts | 53° |
| 2026-05-05 14:06 | 41.80590 | 12.26479 | 13 ft | 23 kts | 71° |
| 2026-05-05 14:06 | 41.80654 | 12.26710 | 10 ft | 23 kts | 69° |
| 2026-05-05 14:06 | 41.80717 | 12.26941 | 10 ft | 22 kts | 67° |
| 2026-05-05 14:07 | 41.80860 | 12.27017 | 11 ft | 21 kts | 341° |
| 2026-05-05 14:07 | 41.80947 | 12.26915 | 11 ft | 15 kts | 262° |
| 2026-05-05 14:07 | 41.80837 | 12.26506 | 13 ft | 85 kts | 248° |
| 2026-05-05 14:07 | 41.80489 | 12.25254 | 14 ft | 163 kts | 249° |
| 2026-05-05 14:08 | 41.79989 | 12.23310 | 459 ft | 193 kts | 249° |
| 2026-05-05 14:08 | 41.79564 | 12.21287 | 1529 ft | 193 kts | 251° |
| 2026-05-05 14:08 | 41.79322 | 12.19223 | 2496 ft | 200 kts | 261° |
| 2026-05-05 14:08 | 41.79219 | 12.17003 | 3230 ft | 217 kts | 264° |
| 2026-05-05 14:09 | 41.79147 | 12.14595 | 3735 ft | 246 kts | 265° |
| 2026-05-05 14:09 | 41.79078 | 12.11861 | 4277 ft | 265 kts | 266° |
| 2026-05-05 14:09 | 41.79017 | 12.09062 | 5475 ft | 266 kts | 268° |
| 2026-05-05 14:09 | 41.79010 | 12.06134 | 6750 ft | 265 kts | 269° |
| 2026-05-05 14:10 | 41.79017 | 12.03231 | 7916 ft | 266 kts | 269° |
| 2026-05-05 14:10 | 41.79019 | 12.00399 | 8975 ft | 269 kts | 269° |
| 2026-05-05 14:10 | 41.79017 | 11.97541 | 9991 ft | 271 kts | 269° |
| 2026-05-05 14:10 | 41.79012 | 11.94724 | 10818 ft | 279 kts | 269° |
| 2026-05-05 14:11 | 41.79003 | 11.91640 | 11381 ft | 297 kts | 268° |
| 2026-05-05 14:11 | 41.78992 | 11.88535 | 12101 ft | 306 kts | 269° |
| 2026-05-05 14:11 | 41.78982 | 11.85273 | 13050 ft | 309 kts | 269° |
| 2026-05-05 14:11 | 41.78971 | 11.81968 | 13985 ft | 311 kts | 269° |
| 2026-05-05 14:12 | 41.78960 | 11.78691 | 14835 ft | 315 kts | 268° |
| 2026-05-05 14:12 | 41.78945 | 11.75357 | 15638 ft | 319 kts | 269° |
| 2026-05-05 14:12 | 41.78930 | 11.71962 | 16418 ft | 324 kts | 268° |
| 2026-05-05 14:12 | 41.78912 | 11.68318 | 17235 ft | 329 kts | 268° |
| 2026-05-05 14:13 | 41.78894 | 11.64967 | 17939 ft | 333 kts | 268° |
| 2026-05-05 14:13 | 41.78874 | 11.61526 | 18653 ft | 337 kts | 268° |
| 2026-05-05 14:13 | 41.78922 | 11.57968 | 19366 ft | 342 kts | 276° |
| 2026-05-05 14:13 | 41.79682 | 11.54544 | 20062 ft | 350 kts | 293° |
| 2026-05-05 14:14 | 41.81278 | 11.51455 | 20786 ft | 358 kts | 307° |
| 2026-05-05 14:14 | 41.83161 | 11.48585 | 21486 ft | 361 kts | 308° |
| 2026-05-05 14:14 | 41.85112 | 11.45645 | 22155 ft | 365 kts | 308° |
| 2026-05-05 14:14 | 41.87015 | 11.42764 | 22797 ft | 368 kts | 308° |
| 2026-05-05 14:15 | 41.88985 | 11.39768 | 23425 ft | 372 kts | 308° |
| 2026-05-05 14:15 | 41.90961 | 11.36757 | 24048 ft | 375 kts | 308° |
| 2026-05-05 14:15 | 41.92945 | 11.33723 | 24668 ft | 377 kts | 307° |
| 2026-05-05 14:15 | 41.94947 | 11.30654 | 25286 ft | 380 kts | 307° |
| 2026-05-05 14:16 | 41.96943 | 11.27590 | 25885 ft | 382 kts | 307° |
| 2026-05-05 14:16 | 41.98977 | 11.24467 | 26469 ft | 383 kts | 307° |
| 2026-05-05 14:16 | 42.01009 | 11.21342 | 27022 ft | 385 kts | 306° |
| 2026-05-05 14:16 | 42.03027 | 11.18230 | 27557 ft | 387 kts | 306° |
| 2026-05-05 14:17 | 42.05058 | 11.15099 | 28081 ft | 388 kts | 306° |
| 2026-05-05 14:17 | 42.07058 | 11.12011 | 28571 ft | 390 kts | 306° |
| 2026-05-05 14:17 | 42.09136 | 11.08796 | 29021 ft | 393 kts | 306° |
| 2026-05-05 14:17 | 42.11225 | 11.05561 | 29460 ft | 395 kts | 306° |
| 2026-05-05 14:18 | 42.13325 | 11.02309 | 29879 ft | 398 kts | 306° |
| 2026-05-05 14:18 | 42.15463 | 10.98990 | 30303 ft | 399 kts | 306° |
| 2026-05-05 14:18 | 42.17627 | 10.95627 | 30721 ft | 401 kts | 305° |
| 2026-05-05 14:18 | 42.19814 | 10.92225 | 31111 ft | 404 kts | 305° |
| 2026-05-05 14:19 | 42.22044 | 10.88754 | 31506 ft | 406 kts | 305° |
| 2026-05-05 14:19 | 42.24313 | 10.85351 | 31891 ft | 409 kts | 308° |
| 2026-05-05 14:19 | 42.26762 | 10.82255 | 32264 ft | 414 kts | 313° |
| 2026-05-05 14:19 | 42.29501 | 10.79382 | 32687 ft | 418 kts | 318° |
| 2026-05-05 14:20 | 42.32492 | 10.76815 | 33173 ft | 421 kts | 323° |
| 2026-05-05 14:20 | 42.35647 | 10.74644 | 33605 ft | 424 kts | 328° |
| 2026-05-05 14:20 | 42.38907 | 10.72875 | 34030 ft | 426 kts | 332° |
| 2026-05-05 14:20 | 42.42252 | 10.71212 | 34335 ft | 427 kts | 332° |
| 2026-05-05 14:21 | 42.45612 | 10.69561 | 34611 ft | 428 kts | 332° |
| 2026-05-05 14:21 | 42.48857 | 10.67964 | 34888 ft | 428 kts | 333° |
| 2026-05-05 14:21 | 42.52228 | 10.66301 | 35189 ft | 428 kts | 332° |
| 2026-05-05 14:21 | 42.55571 | 10.64649 | 35478 ft | 427 kts | 332° |
| 2026-05-05 14:22 | 42.58857 | 10.63018 | 35762 ft | 426 kts | 332° |
| 2026-05-05 14:22 | 42.62090 | 10.61409 | 36005 ft | 425 kts | 332° |
| 2026-05-05 14:22 | 42.65283 | 10.59819 | 36241 ft | 425 kts | 332° |
| 2026-05-05 14:22 | 42.68507 | 10.58212 | 36444 ft | 426 kts | 332° |
| 2026-05-05 14:23 | 42.71744 | 10.56596 | 36652 ft | 427 kts | 332° |
| 2026-05-05 14:23 | 42.74929 | 10.55003 | 36847 ft | 428 kts | 332° |
| 2026-05-05 14:23 | 42.78214 | 10.53358 | 37041 ft | 429 kts | 332° |
| 2026-05-05 14:23 | 42.81425 | 10.51750 | 37233 ft | 430 kts | 332° |
| 2026-05-05 14:24 | 42.84720 | 10.50098 | 37437 ft | 431 kts | 332° |
| 2026-05-05 14:24 | 42.88027 | 10.48438 | 37608 ft | 432 kts | 332° |
| 2026-05-05 14:24 | 42.91341 | 10.46771 | 37758 ft | 433 kts | 332° |
| 2026-05-05 14:24 | 42.94557 | 10.45153 | 37906 ft | 434 kts | 332° |
| 2026-05-05 14:25 | 43.01156 | 10.41826 | 37941 ft | 435 kts | 332° |
| 2026-05-05 14:25 | 43.07706 | 10.38515 | 37950 ft | 435 kts | 332° |
| 2026-05-05 14:26 | 43.13916 | 10.35080 | 37944 ft | 431 kts | 327° |
| 2026-05-05 14:26 | 43.19635 | 10.30805 | 37951 ft | 425 kts | 320° |
| 2026-05-05 14:27 | 43.24901 | 10.25673 | 37957 ft | 421 kts | 315° |
| 2026-05-05 14:27 | 43.30117 | 10.20041 | 37954 ft | 421 kts | 314° |
| 2026-05-05 14:28 | 43.35361 | 10.14351 | 37950 ft | 421 kts | 315° |
| 2026-05-05 14:28 | 43.40717 | 10.08538 | 37945 ft | 421 kts | 314° |
| 2026-05-05 14:29 | 43.45994 | 10.02802 | 37940 ft | 421 kts | 315° |
| 2026-05-05 14:29 | 43.51328 | 9.96991 | 37934 ft | 423 kts | 314° |
| 2026-05-05 14:30 | 43.56595 | 9.91235 | 37938 ft | 424 kts | 315° |
| 2026-05-05 14:30 | 43.61866 | 9.85465 | 37934 ft | 424 kts | 315° |
| 2026-05-05 14:31 | 43.67176 | 9.79642 | 37928 ft | 424 kts | 315° |
| 2026-05-05 14:31 | 43.72305 | 9.74002 | 37929 ft | 424 kts | 315° |
| 2026-05-05 14:32 | 43.77613 | 9.68154 | 37931 ft | 424 kts | 314° |
| 2026-05-05 14:32 | 43.82882 | 9.62330 | 37925 ft | 425 kts | 314° |
| 2026-05-05 14:33 | 43.88183 | 9.56460 | 37930 ft | 425 kts | 314° |
| 2026-05-05 14:33 | 43.93372 | 9.50701 | 37939 ft | 426 kts | 314° |
| 2026-05-05 14:34 | 43.98575 | 9.44917 | 37932 ft | 427 kts | 314° |
| 2026-05-05 14:34 | 44.03859 | 9.39024 | 37933 ft | 427 kts | 314° |
| 2026-05-05 14:35 | 44.08995 | 9.33283 | 37937 ft | 427 kts | 314° |
| 2026-05-05 14:35 | 44.13940 | 9.27741 | 37937 ft | 429 kts | 314° |
| 2026-05-05 14:36 | 44.18957 | 9.22111 | 37928 ft | 428 kts | 314° |
| 2026-05-05 14:36 | 44.24156 | 9.16262 | 37916 ft | 429 kts | 314° |
| 2026-05-05 14:37 | 44.29210 | 9.10557 | 37927 ft | 430 kts | 314° |
| 2026-05-05 14:37 | 44.34339 | 9.04762 | 37933 ft | 430 kts | 314° |
| 2026-05-05 14:38 | 44.39626 | 8.98770 | 37939 ft | 431 kts | 314° |
| 2026-05-05 14:38 | 44.44810 | 8.92883 | 37935 ft | 432 kts | 314° |
| 2026-05-05 14:39 | 44.50038 | 8.86929 | 37946 ft | 433 kts | 314° |
| 2026-05-05 14:39 | 44.55396 | 8.80817 | 37952 ft | 433 kts | 314° |
| 2026-05-05 14:40 | 44.60751 | 8.74691 | 37947 ft | 434 kts | 314° |
| 2026-05-05 14:40 | 44.65910 | 8.68773 | 37942 ft | 434 kts | 314° |
| 2026-05-05 14:41 | 44.71326 | 8.62549 | 37934 ft | 434 kts | 314° |
| 2026-05-05 14:41 | 44.76746 | 8.56299 | 37938 ft | 435 kts | 314° |
| 2026-05-05 14:42 | 44.82185 | 8.50016 | 37943 ft | 435 kts | 314° |
| 2026-05-05 14:42 | 44.87649 | 8.43689 | 37933 ft | 436 kts | 314° |
| 2026-05-05 14:43 | 44.93036 | 8.37433 | 37929 ft | 437 kts | 314° |
| 2026-05-05 14:43 | 44.98272 | 8.31339 | 37929 ft | 436 kts | 314° |
| 2026-05-05 14:44 | 45.03415 | 8.25337 | 37932 ft | 436 kts | 314° |
| 2026-05-05 14:44 | 45.08654 | 8.19208 | 37943 ft | 437 kts | 313° |
| 2026-05-05 14:45 | 45.13576 | 8.13436 | 37951 ft | 437 kts | 314° |
| 2026-05-05 14:45 | 45.18583 | 8.07551 | 37935 ft | 438 kts | 314° |
| 2026-05-05 14:46 | 45.23703 | 8.01518 | 37954 ft | 438 kts | 313° |
| 2026-05-05 14:46 | 45.28739 | 7.95571 | 37947 ft | 437 kts | 313° |
| 2026-05-05 14:47 | 45.33862 | 7.89506 | 37948 ft | 438 kts | 313° |
| 2026-05-05 14:47 | 45.38879 | 7.83550 | 37945 ft | 438 kts | 313° |
| 2026-05-05 14:48 | 45.43908 | 7.77566 | 37945 ft | 439 kts | 313° |
| 2026-05-05 14:48 | 45.48914 | 7.71596 | 37947 ft | 440 kts | 314° |
| 2026-05-05 14:49 | 45.54082 | 7.65417 | 37953 ft | 440 kts | 314° |
| 2026-05-05 14:49 | 45.59131 | 7.59367 | 37935 ft | 440 kts | 314° |
| 2026-05-05 14:50 | 45.64218 | 7.53254 | 37943 ft | 440 kts | 314° |
| 2026-05-05 14:50 | 45.69290 | 7.47142 | 37936 ft | 441 kts | 314° |
| 2026-05-05 14:51 | 45.74280 | 7.41114 | 37917 ft | 442 kts | 314° |
| 2026-05-05 14:51 | 45.79287 | 7.35112 | 37911 ft | 444 kts | 316° |
| 2026-05-05 14:52 | 45.84335 | 7.29828 | 37936 ft | 445 kts | 318° |
| 2026-05-05 14:52 | 45.89588 | 7.24512 | 37921 ft | 445 kts | 319° |
| 2026-05-05 14:53 | 45.94943 | 7.19058 | 37922 ft | 446 kts | 319° |
| 2026-05-05 14:53 | 46.00426 | 7.13461 | 37911 ft | 446 kts | 319° |
| 2026-05-05 14:54 | 46.05799 | 7.07961 | 37897 ft | 446 kts | 319° |
| 2026-05-05 14:54 | 46.11231 | 7.02378 | 37904 ft | 448 kts | 319° |
| 2026-05-05 14:55 | 46.16464 | 6.96987 | 37921 ft | 448 kts | 319° |
| 2026-05-05 14:55 | 46.21919 | 6.91350 | 37917 ft | 448 kts | 319° |
| 2026-05-05 14:56 | 46.27434 | 6.85636 | 37914 ft | 448 kts | 319° |
| 2026-05-05 14:56 | 46.33032 | 6.79822 | 37903 ft | 448 kts | 320° |
| 2026-05-05 14:57 | 46.38549 | 6.74078 | 37898 ft | 448 kts | 320° |
| 2026-05-05 14:57 | 46.43984 | 6.68090 | 37897 ft | 446 kts | 315° |
| 2026-05-05 14:58 | 46.48701 | 6.61556 | 37872 ft | 445 kts | 309° |
| 2026-05-05 14:58 | 46.53348 | 6.54503 | 37867 ft | 445 kts | 309° |
| 2026-05-05 14:59 | 46.58063 | 6.47321 | 37861 ft | 446 kts | 309° |
| 2026-05-05 14:59 | 46.62810 | 6.40096 | 37861 ft | 446 kts | 310° |
| 2026-05-05 15:00 | 46.66756 | 6.34077 | 37864 ft | 446 kts | 309° |
| 2026-05-05 15:00 | 46.72055 | 6.25977 | 37853 ft | 445 kts | 309° |
| 2026-05-05 15:01 | 46.76782 | 6.18727 | 37869 ft | 446 kts | 309° |
| 2026-05-05 15:01 | 46.81457 | 6.11538 | 37899 ft | 446 kts | 309° |
| 2026-05-05 15:02 | 46.86220 | 6.04193 | 37870 ft | 446 kts | 309° |
| 2026-05-05 15:02 | 46.90997 | 5.96936 | 37865 ft | 447 kts | 312° |
| 2026-05-05 15:03 | 46.96421 | 5.90209 | 37859 ft | 450 kts | 320° |
| 2026-05-05 15:03 | 47.02404 | 5.84583 | 37863 ft | 453 kts | 328° |
| 2026-05-05 15:04 | 47.08662 | 5.79750 | 37873 ft | 453 kts | 329° |
| 2026-05-05 15:04 | 47.14591 | 5.75219 | 37868 ft | 453 kts | 329° |
| 2026-05-05 15:05 | 47.23845 | 5.68078 | 37863 ft | 453 kts | 329° |
| 2026-05-05 15:06 | 47.30153 | 5.63183 | 37859 ft | 453 kts | 329° |
| 2026-05-05 15:06 | 47.36382 | 5.58336 | 37862 ft | 452 kts | 329° |
| 2026-05-05 15:07 | 47.42579 | 5.53498 | 37854 ft | 452 kts | 330° |
| 2026-05-05 15:07 | 47.48710 | 5.48160 | 37843 ft | 450 kts | 322° |
| 2026-05-05 15:08 | 47.53770 | 5.41951 | 37830 ft | 448 kts | 313° |
| 2026-05-05 15:08 | 47.58204 | 5.34403 | 37822 ft | 445 kts | 303° |
| 2026-05-05 15:09 | 47.62154 | 5.26426 | 37828 ft | 445 kts | 303° |
| 2026-05-05 15:09 | 47.66237 | 5.18124 | 37823 ft | 445 kts | 303° |
| 2026-05-05 15:10 | 47.70448 | 5.09578 | 37824 ft | 445 kts | 303° |
| 2026-05-05 15:10 | 47.74597 | 5.01147 | 37820 ft | 446 kts | 303° |
| 2026-05-05 15:11 | 47.78859 | 4.92463 | 37819 ft | 446 kts | 303° |
| 2026-05-05 15:11 | 47.83159 | 4.83675 | 37821 ft | 445 kts | 303° |
| 2026-05-05 15:12 | 47.87553 | 4.74663 | 37819 ft | 446 kts | 303° |
| 2026-05-05 15:12 | 47.91889 | 4.65743 | 37809 ft | 446 kts | 303° |
| 2026-05-05 15:13 | 47.96273 | 4.56693 | 37796 ft | 446 kts | 304° |
| 2026-05-05 15:13 | 48.00702 | 4.47518 | 37794 ft | 446 kts | 304° |
| 2026-05-05 15:14 | 48.05043 | 4.38497 | 37799 ft | 446 kts | 304° |
| 2026-05-05 15:14 | 48.09302 | 4.29617 | 37801 ft | 446 kts | 303° |
| 2026-05-05 15:15 | 48.13522 | 4.20785 | 37796 ft | 446 kts | 303° |
| 2026-05-05 15:15 | 48.17842 | 4.11711 | 37790 ft | 446 kts | 303° |
| 2026-05-05 15:16 | 48.22225 | 4.02478 | 37804 ft | 446 kts | 303° |
| 2026-05-05 15:16 | 48.26868 | 3.93628 | 37801 ft | 448 kts | 310° |
| 2026-05-05 15:17 | 48.32131 | 3.85279 | 37794 ft | 449 kts | 312° |
| 2026-05-05 15:17 | 48.37372 | 3.77043 | 37810 ft | 449 kts | 312° |
| 2026-05-05 15:18 | 48.42598 | 3.68773 | 37797 ft | 449 kts | 312° |
| 2026-05-05 15:18 | 48.47827 | 3.60460 | 37800 ft | 449 kts | 312° |
| 2026-05-05 15:19 | 48.53029 | 3.52161 | 37795 ft | 450 kts | 312° |
| 2026-05-05 15:19 | 48.58228 | 3.43843 | 37797 ft | 451 kts | 312° |
| 2026-05-05 15:20 | 48.63418 | 3.35508 | 37779 ft | 451 kts | 312° |
| 2026-05-05 15:20 | 48.68428 | 3.27435 | 37780 ft | 451 kts | 311° |
| 2026-05-05 15:21 | 48.73533 | 3.19182 | 37780 ft | 451 kts | 311° |
| 2026-05-05 15:21 | 48.78639 | 3.10899 | 37797 ft | 451 kts | 311° |
| 2026-05-05 15:22 | 48.84030 | 3.03105 | 37793 ft | 452 kts | 319° |
| 2026-05-05 15:22 | 48.90021 | 2.96552 | 37802 ft | 453 kts | 328° |
| 2026-05-05 15:23 | 48.96462 | 2.90867 | 37801 ft | 454 kts | 330° |
| 2026-05-05 15:23 | 49.03023 | 2.85162 | 37789 ft | 455 kts | 329° |
| 2026-05-05 15:24 | 49.09565 | 2.79422 | 37793 ft | 456 kts | 329° |
| 2026-05-05 15:24 | 49.15738 | 2.73977 | 37799 ft | 455 kts | 329° |
| 2026-05-05 15:25 | 49.21899 | 2.68527 | 37810 ft | 454 kts | 329° |
| 2026-05-05 15:25 | 49.28311 | 2.62838 | 37819 ft | 455 kts | 329° |
| 2026-05-05 15:26 | 49.34728 | 2.57122 | 37816 ft | 454 kts | 329° |
| 2026-05-05 15:26 | 49.41074 | 2.51452 | 37825 ft | 454 kts | 329° |
| 2026-05-05 15:27 | 49.47431 | 2.45814 | 37822 ft | 454 kts | 332° |
| 2026-05-05 15:27 | 49.54062 | 2.41157 | 37807 ft | 455 kts | 340° |
| 2026-05-05 15:28 | 49.61113 | 2.37709 | 37822 ft | 455 kts | 344° |
| 2026-05-05 15:28 | 49.68019 | 2.34617 | 37826 ft | 455 kts | 343° |
| 2026-05-05 15:29 | 49.74929 | 2.31489 | 37829 ft | 455 kts | 343° |
| 2026-05-05 15:29 | 49.81833 | 2.28337 | 37831 ft | 455 kts | 343° |
| 2026-05-05 15:30 | 49.88937 | 2.25080 | 37843 ft | 455 kts | 343° |
| 2026-05-05 15:30 | 49.96104 | 2.21783 | 37826 ft | 455 kts | 343° |